sensor_id;sensor_type;location;lat;lon;timestamp;P1;durP1;ratioP1;P2;durP2;ratioP2
33824;SDS011;20127;48.962;8.342;2023-02-15T00:01:25;97.35;;;34.78;;
33824;SDS011;20127;48.962;8.342;2023-02-15T00:04:33;126.88;;;42.03;;
33824;SDS011;20127;48.962;8.342;2023-02-15T00:07:48;97.47;;;38.65;;
33824;SDS011;20127;48.962;8.342;2023-02-15T00:10:50;105.75;;;37.55;;
33824;SDS011;20127;48.962;8.342;2023-02-15T00:13:52;91.05;;;36.40;;
33824;SDS011;20127;48.962;8.342;2023-02-15T00:16:53;100.22;;;38.70;;
33824;SDS011;20127;48.962;8.342;2023-02-15T00:20:00;96.05;;;37.83;;
33824;SDS011;20127;48.962;8.342;2023-02-15T00:23:02;113.63;;;41.13;;
33824;SDS011;20127;48.962;8.342;2023-02-15T00:26:05;143.32;;;42.42;;
33824;SDS011;20127;48.962;8.342;2023-02-15T00:29:07;91.50;;;34.50;;
33824;SDS011;20127;48.962;8.342;2023-02-15T00:32:10;100.07;;;35.38;;
33824;SDS011;20127;48.962;8.342;2023-02-15T00:35:13;154.57;;;40.70;;
33824;SDS011;20127;48.962;8.342;2023-02-15T00:38:14;100.32;;;35.60;;
33824;SDS011;20127;48.962;8.342;2023-02-15T00:41:16;152.38;;;37.92;;
33824;SDS011;20127;48.962;8.342;2023-02-15T00:44:18;143.55;;;37.00;;
33824;SDS011;20127;48.962;8.342;2023-02-15T00:47:20;126.50;;;36.60;;
33824;SDS011;20127;48.962;8.342;2023-02-15T00:50:23;105.47;;;36.88;;
33824;SDS011;20127;48.962;8.342;2023-02-15T00:53:25;143.18;;;37.65;;
33824;SDS011;20127;48.962;8.342;2023-02-15T00:56:27;116.95;;;35.72;;
33824;SDS011;20127;48.962;8.342;2023-02-15T00:59:28;98.07;;;36.97;;
33824;SDS011;20127;48.962;8.342;2023-02-15T01:02:30;132.35;;;37.97;;
33824;SDS011;20127;48.962;8.342;2023-02-15T01:05:33;104.53;;;34.92;;
33824;SDS011;20127;48.962;8.342;2023-02-15T01:08:35;120.70;;;36.35;;
33824;SDS011;20127;48.962;8.342;2023-02-15T01:11:37;88.68;;;33.75;;
33824;SDS011;20127;48.962;8.342;2023-02-15T01:14:39;93.43;;;35.20;;
33824;SDS011;20127;48.962;8.342;2023-02-15T01:25:35;76.00;;;31.75;;
33824;SDS011;20127;48.962;8.342;2023-02-15T01:28:37;118.55;;;35.72;;
33824;SDS011;20127;48.962;8.342;2023-02-15T01:31:39;117.07;;;33.25;;
33824;SDS011;20127;48.962;8.342;2023-02-15T01:34:50;93.45;;;30.90;;
33824;SDS011;20127;48.962;8.342;2023-02-15T01:37:51;100.70;;;37.38;;
33824;SDS011;20127;48.962;8.342;2023-02-15T01:40:55;92.85;;;34.72;;
33824;SDS011;20127;48.962;8.342;2023-02-15T01:47:49;90.57;;;29.85;;
33824;SDS011;20127;48.962;8.342;2023-02-15T01:50:59;95.93;;;34.53;;
33824;SDS011;20127;48.962;8.342;2023-02-15T01:54:05;96.57;;;34.03;;
33824;SDS011;20127;48.962;8.342;2023-02-15T01:57:12;83.57;;;33.58;;
33824;SDS011;20127;48.962;8.342;2023-02-15T02:00:17;83.30;;;33.90;;
33824;SDS011;20127;48.962;8.342;2023-02-15T02:03:29;109.95;;;36.03;;
33824;SDS011;20127;48.962;8.342;2023-02-15T02:06:39;89.80;;;35.75;;
33824;SDS011;20127;48.962;8.342;2023-02-15T02:09:42;88.88;;;36.03;;
33824;SDS011;20127;48.962;8.342;2023-02-15T02:12:46;95.40;;;36.05;;
33824;SDS011;20127;48.962;8.342;2023-02-15T02:15:52;97.30;;;36.95;;
33824;SDS011;20127;48.962;8.342;2023-02-15T02:19:01;98.28;;;35.30;;
33824;SDS011;20127;48.962;8.342;2023-02-15T02:22:33;77.63;;;36.92;;
33824;SDS011;20127;48.962;8.342;2023-02-15T02:26:01;102.50;;;35.75;;
33824;SDS011;20127;48.962;8.342;2023-02-15T02:36:31;85.30;;;35.40;;
33824;SDS011;20127;48.962;8.342;2023-02-15T02:39:42;71.05;;;30.25;;
33824;SDS011;20127;48.962;8.342;2023-02-15T02:42:52;82.63;;;31.42;;
33824;SDS011;20127;48.962;8.342;2023-02-15T02:45:58;71.87;;;34.63;;
33824;SDS011;20127;48.962;8.342;2023-02-15T02:49:05;74.72;;;34.42;;
33824;SDS011;20127;48.962;8.342;2023-02-15T02:52:07;76.95;;;33.47;;
33824;SDS011;20127;48.962;8.342;2023-02-15T02:55:42;79.82;;;33.15;;
33824;SDS011;20127;48.962;8.342;2023-02-15T02:58:47;81.28;;;32.88;;
33824;SDS011;20127;48.962;8.342;2023-02-15T03:01:53;72.22;;;34.63;;
33824;SDS011;20127;48.962;8.342;2023-02-15T03:05:02;56.78;;;29.88;;
33824;SDS011;20127;48.962;8.342;2023-02-15T03:08:07;70.07;;;29.05;;
33824;SDS011;20127;48.962;8.342;2023-02-15T03:11:10;78.00;;;30.25;;
33824;SDS011;20127;48.962;8.342;2023-02-15T03:14:13;87.45;;;31.10;;
33824;SDS011;20127;48.962;8.342;2023-02-15T03:17:16;108.03;;;32.15;;
33824;SDS011;20127;48.962;8.342;2023-02-15T03:20:22;75.60;;;32.00;;
33824;SDS011;20127;48.962;8.342;2023-02-15T03:23:27;68.45;;;31.33;;
33824;SDS011;20127;48.962;8.342;2023-02-15T03:26:30;81.13;;;34.38;;
33824;SDS011;20127;48.962;8.342;2023-02-15T03:29:33;72.47;;;32.20;;
33824;SDS011;20127;48.962;8.342;2023-02-15T03:32:36;75.38;;;32.38;;
33824;SDS011;20127;48.962;8.342;2023-02-15T03:35:43;79.40;;;32.45;;
33824;SDS011;20127;48.962;8.342;2023-02-15T03:38:51;78.70;;;35.30;;
33824;SDS011;20127;48.962;8.342;2023-02-15T03:42:01;76.72;;;33.20;;
33824;SDS011;20127;48.962;8.342;2023-02-15T03:45:10;72.90;;;31.10;;
33824;SDS011;20127;48.962;8.342;2023-02-15T03:48:16;81.18;;;32.70;;
33824;SDS011;20127;48.962;8.342;2023-02-15T03:51:21;63.17;;;33.47;;
33824;SDS011;20127;48.962;8.342;2023-02-15T03:54:36;68.18;;;30.60;;
33824;SDS011;20127;48.962;8.342;2023-02-15T03:57:45;72.32;;;31.52;;
33824;SDS011;20127;48.962;8.342;2023-02-15T04:01:09;69.47;;;28.63;;
33824;SDS011;20127;48.962;8.342;2023-02-15T04:04:33;57.55;;;28.20;;
33824;SDS011;20127;48.962;8.342;2023-02-15T04:07:37;61.95;;;31.50;;
33824;SDS011;20127;48.962;8.342;2023-02-15T04:10:39;67.47;;;27.35;;
33824;SDS011;20127;48.962;8.342;2023-02-15T04:13:52;55.95;;;27.52;;
33824;SDS011;20127;48.962;8.342;2023-02-15T04:16:56;53.72;;;25.42;;
33824;SDS011;20127;48.962;8.342;2023-02-15T04:19:57;59.85;;;30.00;;
33824;SDS011;20127;48.962;8.342;2023-02-15T04:23:18;65.88;;;29.48;;
33824;SDS011;20127;48.962;8.342;2023-02-15T04:26:38;63.45;;;27.88;;
33824;SDS011;20127;48.962;8.342;2023-02-15T04:29:39;63.25;;;27.80;;
33824;SDS011;20127;48.962;8.342;2023-02-15T04:32:41;69.28;;;29.52;;
33824;SDS011;20127;48.962;8.342;2023-02-15T04:35:43;58.90;;;26.70;;
33824;SDS011;20127;48.962;8.342;2023-02-15T04:38:47;65.05;;;26.58;;
33824;SDS011;20127;48.962;8.342;2023-02-15T04:41:48;85.32;;;29.52;;
33824;SDS011;20127;48.962;8.342;2023-02-15T04:44:50;57.88;;;27.10;;
33824;SDS011;20127;48.962;8.342;2023-02-15T04:47:52;59.13;;;29.02;;
33824;SDS011;20127;48.962;8.342;2023-02-15T04:50:54;68.95;;;28.27;;
33824;SDS011;20127;48.962;8.342;2023-02-15T04:53:57;62.47;;;27.40;;
33824;SDS011;20127;48.962;8.342;2023-02-15T04:56:58;65.68;;;29.35;;
33824;SDS011;20127;48.962;8.342;2023-02-15T05:00:00;65.43;;;27.98;;
33824;SDS011;20127;48.962;8.342;2023-02-15T05:03:02;82.88;;;30.65;;
33824;SDS011;20127;48.962;8.342;2023-02-15T05:06:04;58.95;;;25.52;;
33824;SDS011;20127;48.962;8.342;2023-02-15T05:09:07;55.38;;;28.23;;
33824;SDS011;20127;48.962;8.342;2023-02-15T05:12:09;59.88;;;27.60;;
33824;SDS011;20127;48.962;8.342;2023-02-15T05:18:41;60.30;;;25.65;;
33824;SDS011;20127;48.962;8.342;2023-02-15T05:21:43;67.10;;;28.05;;
33824;SDS011;20127;48.962;8.342;2023-02-15T05:24:46;66.57;;;29.65;;
33824;SDS011;20127;48.962;8.342;2023-02-15T05:28:07;64.65;;;29.90;;
33824;SDS011;20127;48.962;8.342;2023-02-15T05:31:22;67.20;;;26.25;;
33824;SDS011;20127;48.962;8.342;2023-02-15T05:34:23;72.70;;;27.42;;
33824;SDS011;20127;48.962;8.342;2023-02-15T05:37:25;58.38;;;26.80;;
33824;SDS011;20127;48.962;8.342;2023-02-15T05:40:28;66.28;;;26.65;;
33824;SDS011;20127;48.962;8.342;2023-02-15T05:43:31;52.92;;;25.23;;
33824;SDS011;20127;48.962;8.342;2023-02-15T05:46:33;54.35;;;24.33;;
33824;SDS011;20127;48.962;8.342;2023-02-15T05:49:35;72.63;;;25.35;;
33824;SDS011;20127;48.962;8.342;2023-02-15T05:52:37;58.63;;;25.83;;
33824;SDS011;20127;48.962;8.342;2023-02-15T05:55:40;50.83;;;24.42;;
33824;SDS011;20127;48.962;8.342;2023-02-15T05:58:42;54.20;;;23.95;;
33824;SDS011;20127;48.962;8.342;2023-02-15T06:01:43;59.38;;;24.10;;
33824;SDS011;20127;48.962;8.342;2023-02-15T06:04:45;65.40;;;25.75;;
33824;SDS011;20127;48.962;8.342;2023-02-15T06:07:47;60.65;;;25.40;;
33824;SDS011;20127;48.962;8.342;2023-02-15T06:10:50;73.40;;;26.10;;
33824;SDS011;20127;48.962;8.342;2023-02-15T06:13:51;66.07;;;26.50;;
33824;SDS011;20127;48.962;8.342;2023-02-15T06:16:53;55.80;;;25.08;;
33824;SDS011;20127;48.962;8.342;2023-02-15T06:19:55;62.00;;;28.58;;
33824;SDS011;20127;48.962;8.342;2023-02-15T06:22:56;57.58;;;25.65;;
33824;SDS011;20127;48.962;8.342;2023-02-15T06:25:59;60.33;;;25.10;;
33824;SDS011;20127;48.962;8.342;2023-02-15T06:29:01;69.32;;;28.25;;
33824;SDS011;20127;48.962;8.342;2023-02-15T06:32:03;51.35;;;24.38;;
33824;SDS011;20127;48.962;8.342;2023-02-15T06:35:06;51.95;;;25.05;;
33824;SDS011;20127;48.962;8.342;2023-02-15T06:38:08;69.90;;;24.92;;
33824;SDS011;20127;48.962;8.342;2023-02-15T06:41:11;84.53;;;28.45;;
33824;SDS011;20127;48.962;8.342;2023-02-15T06:44:12;53.80;;;26.45;;
33824;SDS011;20127;48.962;8.342;2023-02-15T06:47:14;60.63;;;25.60;;
33824;SDS011;20127;48.962;8.342;2023-02-15T06:50:16;53.05;;;22.60;;
33824;SDS011;20127;48.962;8.342;2023-02-15T06:53:18;65.93;;;25.38;;
33824;SDS011;20127;48.962;8.342;2023-02-15T06:56:21;61.80;;;25.58;;
33824;SDS011;20127;48.962;8.342;2023-02-15T06:59:22;60.97;;;24.23;;
33824;SDS011;20127;48.962;8.342;2023-02-15T07:02:24;58.67;;;24.75;;
33824;SDS011;20127;48.962;8.342;2023-02-15T07:05:26;62.72;;;26.80;;
33824;SDS011;20127;48.962;8.342;2023-02-15T07:08:30;57.00;;;23.60;;
33824;SDS011;20127;48.962;8.342;2023-02-15T07:11:33;61.28;;;21.70;;
33824;SDS011;20127;48.962;8.342;2023-02-15T07:14:58;62.00;;;23.83;;
33824;SDS011;20127;48.962;8.342;2023-02-15T07:18:00;64.25;;;24.02;;
33824;SDS011;20127;48.962;8.342;2023-02-15T07:21:02;60.58;;;23.45;;
33824;SDS011;20127;48.962;8.342;2023-02-15T07:24:03;61.05;;;23.52;;
33824;SDS011;20127;48.962;8.342;2023-02-15T07:27:07;56.88;;;25.73;;
33824;SDS011;20127;48.962;8.342;2023-02-15T07:30:10;58.28;;;23.27;;
33824;SDS011;20127;48.962;8.342;2023-02-15T07:33:14;65.70;;;23.42;;
33824;SDS011;20127;48.962;8.342;2023-02-15T07:36:24;60.08;;;25.08;;
33824;SDS011;20127;48.962;8.342;2023-02-15T07:39:26;63.03;;;26.58;;
33824;SDS011;20127;48.962;8.342;2023-02-15T07:42:30;64.93;;;25.52;;
33824;SDS011;20127;48.962;8.342;2023-02-15T07:45:31;60.85;;;26.25;;
33824;SDS011;20127;48.962;8.342;2023-02-15T07:48:33;53.72;;;24.98;;
33824;SDS011;20127;48.962;8.342;2023-02-15T07:51:36;58.55;;;24.58;;
33824;SDS011;20127;48.962;8.342;2023-02-15T07:54:37;62.60;;;25.95;;
33824;SDS011;20127;48.962;8.342;2023-02-15T07:57:42;55.67;;;23.80;;
33824;SDS011;20127;48.962;8.342;2023-02-15T08:00:45;73.80;;;26.23;;
33824;SDS011;20127;48.962;8.342;2023-02-15T08:04:04;55.08;;;23.85;;
33824;SDS011;20127;48.962;8.342;2023-02-15T08:07:07;67.80;;;24.48;;
33824;SDS011;20127;48.962;8.342;2023-02-15T08:10:08;61.65;;;26.95;;
33824;SDS011;20127;48.962;8.342;2023-02-15T08:13:32;57.47;;;25.85;;
33824;SDS011;20127;48.962;8.342;2023-02-15T08:16:34;63.17;;;26.65;;
33824;SDS011;20127;48.962;8.342;2023-02-15T08:19:37;64.43;;;23.70;;
33824;SDS011;20127;48.962;8.342;2023-02-15T08:22:39;64.72;;;24.65;;
33824;SDS011;20127;48.962;8.342;2023-02-15T08:25:41;57.75;;;22.40;;
33824;SDS011;20127;48.962;8.342;2023-02-15T08:28:44;60.83;;;25.33;;
33824;SDS011;20127;48.962;8.342;2023-02-15T08:31:46;57.58;;;23.70;;
33824;SDS011;20127;48.962;8.342;2023-02-15T08:34:50;57.40;;;25.05;;
33824;SDS011;20127;48.962;8.342;2023-02-15T08:37:52;56.55;;;22.60;;
33824;SDS011;20127;48.962;8.342;2023-02-15T08:40:53;66.95;;;23.08;;
33824;SDS011;20127;48.962;8.342;2023-02-15T08:43:57;56.95;;;23.63;;
33824;SDS011;20127;48.962;8.342;2023-02-15T08:47:00;56.53;;;23.35;;
33824;SDS011;20127;48.962;8.342;2023-02-15T08:50:03;55.85;;;23.17;;
33824;SDS011;20127;48.962;8.342;2023-02-15T08:53:06;58.45;;;24.42;;
33824;SDS011;20127;48.962;8.342;2023-02-15T08:56:08;62.10;;;28.10;;
33824;SDS011;20127;48.962;8.342;2023-02-15T08:59:13;60.85;;;24.70;;
33824;SDS011;20127;48.962;8.342;2023-02-15T09:02:17;53.90;;;21.92;;
33824;SDS011;20127;48.962;8.342;2023-02-15T09:05:19;60.72;;;21.55;;
33824;SDS011;20127;48.962;8.342;2023-02-15T09:08:20;48.33;;;21.10;;
33824;SDS011;20127;48.962;8.342;2023-02-15T09:11:22;49.33;;;22.73;;
33824;SDS011;20127;48.962;8.342;2023-02-15T09:14:26;48.42;;;24.50;;
33824;SDS011;20127;48.962;8.342;2023-02-15T09:17:28;44.35;;;23.45;;
33824;SDS011;20127;48.962;8.342;2023-02-15T09:20:30;54.58;;;27.20;;
33824;SDS011;20127;48.962;8.342;2023-02-15T09:23:31;52.80;;;24.85;;
33824;SDS011;20127;48.962;8.342;2023-02-15T09:26:34;51.95;;;23.75;;
33824;SDS011;20127;48.962;8.342;2023-02-15T09:29:38;53.92;;;23.58;;
33824;SDS011;20127;48.962;8.342;2023-02-15T09:32:40;47.33;;;22.60;;
33824;SDS011;20127;48.962;8.342;2023-02-15T09:35:41;47.83;;;22.10;;
33824;SDS011;20127;48.962;8.342;2023-02-15T09:38:43;52.08;;;22.00;;
33824;SDS011;20127;48.962;8.342;2023-02-15T09:41:59;44.05;;;21.10;;
33824;SDS011;20127;48.962;8.342;2023-02-15T09:45:18;48.33;;;23.45;;
33824;SDS011;20127;48.962;8.342;2023-02-15T09:48:30;49.25;;;21.70;;
33824;SDS011;20127;48.962;8.342;2023-02-15T09:51:47;42.35;;;21.90;;
33824;SDS011;20127;48.962;8.342;2023-02-15T09:55:09;52.10;;;22.67;;
33824;SDS011;20127;48.962;8.342;2023-02-15T09:58:25;49.08;;;22.85;;
33824;SDS011;20127;48.962;8.342;2023-02-15T10:01:38;40.03;;;20.58;;
33824;SDS011;20127;48.962;8.342;2023-02-15T10:04:53;41.65;;;21.77;;
33824;SDS011;20127;48.962;8.342;2023-02-15T10:08:17;41.88;;;22.35;;
33824;SDS011;20127;48.962;8.342;2023-02-15T10:11:31;48.03;;;23.48;;
33824;SDS011;20127;48.962;8.342;2023-02-15T10:14:49;40.50;;;20.63;;
33824;SDS011;20127;48.962;8.342;2023-02-15T10:18:13;47.08;;;21.65;;
33824;SDS011;20127;48.962;8.342;2023-02-15T10:21:35;41.35;;;22.05;;
33824;SDS011;20127;48.962;8.342;2023-02-15T10:24:46;42.67;;;22.77;;
33824;SDS011;20127;48.962;8.342;2023-02-15T10:27:57;39.17;;;21.45;;
33824;SDS011;20127;48.962;8.342;2023-02-15T10:31:07;43.53;;;23.60;;
33824;SDS011;20127;48.962;8.342;2023-02-15T10:34:23;39.40;;;20.92;;
33824;SDS011;20127;48.962;8.342;2023-02-15T10:37:37;45.92;;;23.40;;
33824;SDS011;20127;48.962;8.342;2023-02-15T10:40:53;41.35;;;19.20;;
33824;SDS011;20127;48.962;8.342;2023-02-15T10:44:05;39.92;;;22.20;;
33824;SDS011;20127;48.962;8.342;2023-02-15T10:51:02;38.53;;;20.02;;
33824;SDS011;20127;48.962;8.342;2023-02-15T10:54:12;39.42;;;20.63;;
33824;SDS011;20127;48.962;8.342;2023-02-15T10:57:21;38.28;;;21.00;;
33824;SDS011;20127;48.962;8.342;2023-02-15T11:00:35;39.35;;;19.95;;
33824;SDS011;20127;48.962;8.342;2023-02-15T11:03:48;42.25;;;22.83;;
33824;SDS011;20127;48.962;8.342;2023-02-15T11:07:11;37.95;;;21.85;;
33824;SDS011;20127;48.962;8.342;2023-02-15T11:10:21;44.58;;;22.17;;
33824;SDS011;20127;48.962;8.342;2023-02-15T11:13:30;48.30;;;25.40;;
33824;SDS011;20127;48.962;8.342;2023-02-15T11:16:36;46.30;;;23.83;;
33824;SDS011;20127;48.962;8.342;2023-02-15T11:19:41;46.97;;;24.20;;
33824;SDS011;20127;48.962;8.342;2023-02-15T11:22:49;38.30;;;20.20;;
33824;SDS011;20127;48.962;8.342;2023-02-15T11:25:54;46.95;;;27.73;;
33824;SDS011;20127;48.962;8.342;2023-02-15T11:28:59;36.92;;;21.52;;
33824;SDS011;20127;48.962;8.342;2023-02-15T11:32:12;41.88;;;22.98;;
33824;SDS011;20127;48.962;8.342;2023-02-15T11:35:22;35.88;;;19.13;;
33824;SDS011;20127;48.962;8.342;2023-02-15T11:38:31;37.83;;;22.60;;
33824;SDS011;20127;48.962;8.342;2023-02-15T11:41:34;38.30;;;20.20;;
33824;SDS011;20127;48.962;8.342;2023-02-15T11:44:41;38.55;;;20.45;;
33824;SDS011;20127;48.962;8.342;2023-02-15T11:47:49;42.60;;;20.95;;
33824;SDS011;20127;48.962;8.342;2023-02-15T11:50:51;44.97;;;22.40;;
33824;SDS011;20127;48.962;8.342;2023-02-15T11:53:54;36.80;;;22.35;;
33824;SDS011;20127;48.962;8.342;2023-02-15T11:56:58;40.40;;;21.02;;
33824;SDS011;20127;48.962;8.342;2023-02-15T12:00:09;45.72;;;21.13;;
33824;SDS011;20127;48.962;8.342;2023-02-15T12:03:17;38.17;;;21.00;;
33824;SDS011;20127;48.962;8.342;2023-02-15T12:06:23;32.65;;;19.25;;
33824;SDS011;20127;48.962;8.342;2023-02-15T12:09:30;38.70;;;23.92;;
33824;SDS011;20127;48.962;8.342;2023-02-15T12:15:37;37.17;;;22.38;;
33824;SDS011;20127;48.962;8.342;2023-02-15T12:18:42;39.00;;;21.27;;
33824;SDS011;20127;48.962;8.342;2023-02-15T12:21:48;37.58;;;20.98;;
33824;SDS011;20127;48.962;8.342;2023-02-15T12:24:53;39.65;;;23.73;;
33824;SDS011;20127;48.962;8.342;2023-02-15T12:27:56;42.05;;;22.92;;
33824;SDS011;20127;48.962;8.342;2023-02-15T12:30:58;36.97;;;22.30;;
33824;SDS011;20127;48.962;8.342;2023-02-15T12:34:02;41.30;;;21.98;;
33824;SDS011;20127;48.962;8.342;2023-02-15T12:37:15;40.63;;;22.73;;
33824;SDS011;20127;48.962;8.342;2023-02-15T12:40:21;38.05;;;21.35;;
33824;SDS011;20127;48.962;8.342;2023-02-15T12:43:26;35.13;;;20.20;;
33824;SDS011;20127;48.962;8.342;2023-02-15T12:46:30;35.47;;;23.88;;
33824;SDS011;20127;48.962;8.342;2023-02-15T12:49:33;40.60;;;23.08;;
33824;SDS011;20127;48.962;8.342;2023-02-15T12:52:35;32.53;;;20.05;;
33824;SDS011;20127;48.962;8.342;2023-02-15T12:55:38;33.92;;;21.00;;
33824;SDS011;20127;48.962;8.342;2023-02-15T12:58:50;40.03;;;21.92;;
33824;SDS011;20127;48.962;8.342;2023-02-15T13:02:05;32.70;;;18.95;;
33824;SDS011;20127;48.962;8.342;2023-02-15T13:05:17;41.63;;;22.58;;
33824;SDS011;20127;48.962;8.342;2023-02-15T13:08:26;33.58;;;21.77;;
33824;SDS011;20127;48.962;8.342;2023-02-15T13:11:31;41.42;;;22.30;;
33824;SDS011;20127;48.962;8.342;2023-02-15T13:14:34;39.05;;;22.30;;
33824;SDS011;20127;48.962;8.342;2023-02-15T13:17:36;33.65;;;20.90;;
33824;SDS011;20127;48.962;8.342;2023-02-15T13:20:38;35.35;;;21.15;;
33824;SDS011;20127;48.962;8.342;2023-02-15T13:23:42;34.00;;;21.75;;
33824;SDS011;20127;48.962;8.342;2023-02-15T13:26:48;32.33;;;21.85;;
33824;SDS011;20127;48.962;8.342;2023-02-15T13:29:50;35.20;;;21.58;;
33824;SDS011;20127;48.962;8.342;2023-02-15T13:32:57;31.65;;;18.42;;
33824;SDS011;20127;48.962;8.342;2023-02-15T13:36:05;32.47;;;18.90;;
33824;SDS011;20127;48.962;8.342;2023-02-15T13:39:17;37.83;;;22.52;;
33824;SDS011;20127;48.962;8.342;2023-02-15T13:42:28;36.63;;;26.05;;
33824;SDS011;20127;48.962;8.342;2023-02-15T13:45:36;26.45;;;18.65;;
33824;SDS011;20127;48.962;8.342;2023-02-15T13:48:51;34.28;;;25.27;;
33824;SDS011;20127;48.962;8.342;2023-02-15T13:52:02;34.90;;;21.67;;
33824;SDS011;20127;48.962;8.342;2023-02-15T13:55:21;32.00;;;22.15;;
33824;SDS011;20127;48.962;8.342;2023-02-15T13:58:48;34.40;;;20.23;;
33824;SDS011;20127;48.962;8.342;2023-02-15T14:02:14;30.65;;;21.73;;
33824;SDS011;20127;48.962;8.342;2023-02-15T14:05:33;31.88;;;22.38;;
33824;SDS011;20127;48.962;8.342;2023-02-15T14:09:00;56.70;;;42.33;;
33824;SDS011;20127;48.962;8.342;2023-02-15T14:12:17;41.67;;;30.70;;
33824;SDS011;20127;48.962;8.342;2023-02-15T14:15:35;36.25;;;27.10;;
33824;SDS011;20127;48.962;8.342;2023-02-15T14:18:44;33.72;;;24.00;;
33824;SDS011;20127;48.962;8.342;2023-02-15T14:21:51;27.88;;;20.27;;
33824;SDS011;20127;48.962;8.342;2023-02-15T14:25:00;30.45;;;21.25;;
33824;SDS011;20127;48.962;8.342;2023-02-15T14:28:14;35.33;;;20.77;;
33824;SDS011;20127;48.962;8.342;2023-02-15T14:31:25;32.95;;;22.90;;
33824;SDS011;20127;48.962;8.342;2023-02-15T14:34:33;32.05;;;22.33;;
33824;SDS011;20127;48.962;8.342;2023-02-15T14:37:45;25.73;;;16.17;;
33824;SDS011;20127;48.962;8.342;2023-02-15T14:40:54;28.58;;;21.70;;
33824;SDS011;20127;48.962;8.342;2023-02-15T14:44:08;29.98;;;20.13;;
33824;SDS011;20127;48.962;8.342;2023-02-15T14:47:16;27.08;;;20.15;;
33824;SDS011;20127;48.962;8.342;2023-02-15T14:50:35;29.52;;;21.85;;
33824;SDS011;20127;48.962;8.342;2023-02-15T14:53:40;30.55;;;20.90;;
33824;SDS011;20127;48.962;8.342;2023-02-15T14:56:42;31.38;;;23.58;;
33824;SDS011;20127;48.962;8.342;2023-02-15T14:59:45;40.70;;;29.58;;
33824;SDS011;20127;48.962;8.342;2023-02-15T15:02:57;32.30;;;24.88;;
33824;SDS011;20127;48.962;8.342;2023-02-15T15:05:59;75.45;;;43.40;;
33824;SDS011;20127;48.962;8.342;2023-02-15T15:09:09;71.90;;;42.53;;
33824;SDS011;20127;48.962;8.342;2023-02-15T15:12:14;51.95;;;32.47;;
33824;SDS011;20127;48.962;8.342;2023-02-15T15:15:44;43.53;;;29.98;;
33824;SDS011;20127;48.962;8.342;2023-02-15T15:18:48;51.72;;;34.50;;
33824;SDS011;20127;48.962;8.342;2023-02-15T15:21:56;245.45;;;124.63;;
33824;SDS011;20127;48.962;8.342;2023-02-15T15:25:07;50.63;;;32.05;;
33824;SDS011;20127;48.962;8.342;2023-02-15T15:31:58;52.70;;;29.98;;
33824;SDS011;20127;48.962;8.342;2023-02-15T15:35:09;38.15;;;28.10;;
33824;SDS011;20127;48.962;8.342;2023-02-15T15:38:28;34.60;;;23.67;;
33824;SDS011;20127;48.962;8.342;2023-02-15T15:41:46;48.38;;;31.05;;
33824;SDS011;20127;48.962;8.342;2023-02-15T15:45:03;69.53;;;38.92;;
33824;SDS011;20127;48.962;8.342;2023-02-15T15:48:27;47.25;;;29.60;;
33824;SDS011;20127;48.962;8.342;2023-02-15T15:51:37;61.17;;;37.03;;
33824;SDS011;20127;48.962;8.342;2023-02-15T15:54:41;48.63;;;30.77;;
33824;SDS011;20127;48.962;8.342;2023-02-15T15:57:44;50.17;;;31.35;;
33824;SDS011;20127;48.962;8.342;2023-02-15T16:00:50;59.33;;;35.00;;
33824;SDS011;20127;48.962;8.342;2023-02-15T16:03:55;48.03;;;28.35;;
33824;SDS011;20127;48.962;8.342;2023-02-15T16:07:12;65.68;;;38.13;;
33824;SDS011;20127;48.962;8.342;2023-02-15T16:10:22;48.35;;;28.88;;
33824;SDS011;20127;48.962;8.342;2023-02-15T16:13:25;47.92;;;27.55;;
33824;SDS011;20127;48.962;8.342;2023-02-15T16:16:28;41.22;;;26.30;;
33824;SDS011;20127;48.962;8.342;2023-02-15T16:19:32;45.97;;;25.88;;
33824;SDS011;20127;48.962;8.342;2023-02-15T16:22:38;42.42;;;25.80;;
33824;SDS011;20127;48.962;8.342;2023-02-15T16:25:42;41.08;;;25.73;;
33824;SDS011;20127;48.962;8.342;2023-02-15T16:28:53;43.42;;;26.63;;
33824;SDS011;20127;48.962;8.342;2023-02-15T16:31:59;45.45;;;25.10;;
33824;SDS011;20127;48.962;8.342;2023-02-15T16:35:01;48.30;;;25.58;;
33824;SDS011;20127;48.962;8.342;2023-02-15T16:38:08;44.95;;;27.25;;
33824;SDS011;20127;48.962;8.342;2023-02-15T16:41:11;42.20;;;25.23;;
33824;SDS011;20127;48.962;8.342;2023-02-15T16:44:16;51.08;;;26.95;;
33824;SDS011;20127;48.962;8.342;2023-02-15T16:47:19;46.75;;;28.75;;
33824;SDS011;20127;48.962;8.342;2023-02-15T16:50:24;54.10;;;27.55;;
33824;SDS011;20127;48.962;8.342;2023-02-15T16:53:30;48.10;;;25.83;;
33824;SDS011;20127;48.962;8.342;2023-02-15T16:56:32;45.88;;;25.05;;
33824;SDS011;20127;48.962;8.342;2023-02-15T16:59:38;46.08;;;28.77;;
33824;SDS011;20127;48.962;8.342;2023-02-15T17:02:52;52.47;;;27.92;;
33824;SDS011;20127;48.962;8.342;2023-02-15T17:05:55;49.30;;;28.10;;
33824;SDS011;20127;48.962;8.342;2023-02-15T17:09:03;52.47;;;28.92;;
33824;SDS011;20127;48.962;8.342;2023-02-15T17:12:08;54.83;;;29.83;;
33824;SDS011;20127;48.962;8.342;2023-02-15T17:15:23;55.38;;;27.60;;
33824;SDS011;20127;48.962;8.342;2023-02-15T17:18:27;49.38;;;26.15;;
33824;SDS011;20127;48.962;8.342;2023-02-15T17:21:31;45.35;;;27.02;;
33824;SDS011;20127;48.962;8.342;2023-02-15T17:24:37;52.22;;;28.70;;
33824;SDS011;20127;48.962;8.342;2023-02-15T17:27:43;49.85;;;28.63;;
33824;SDS011;20127;48.962;8.342;2023-02-15T17:30:44;53.88;;;29.95;;
33824;SDS011;20127;48.962;8.342;2023-02-15T17:33:50;63.90;;;29.67;;
33824;SDS011;20127;48.962;8.342;2023-02-15T17:36:57;55.13;;;29.88;;
33824;SDS011;20127;48.962;8.342;2023-02-15T17:40:07;54.63;;;29.67;;
33824;SDS011;20127;48.962;8.342;2023-02-15T17:43:19;52.42;;;28.05;;
33824;SDS011;20127;48.962;8.342;2023-02-15T17:46:20;53.25;;;27.75;;
33824;SDS011;20127;48.962;8.342;2023-02-15T17:49:23;55.17;;;30.73;;
33824;SDS011;20127;48.962;8.342;2023-02-15T17:52:28;62.17;;;30.48;;
33824;SDS011;20127;48.962;8.342;2023-02-15T17:55:32;58.58;;;31.60;;
33824;SDS011;20127;48.962;8.342;2023-02-15T17:58:42;54.95;;;30.08;;
33824;SDS011;20127;48.962;8.342;2023-02-15T18:01:44;59.13;;;30.95;;
33824;SDS011;20127;48.962;8.342;2023-02-15T18:05:07;58.03;;;31.38;;
33824;SDS011;20127;48.962;8.342;2023-02-15T18:08:31;54.33;;;28.10;;
33824;SDS011;20127;48.962;8.342;2023-02-15T18:11:52;52.17;;;26.92;;
33824;SDS011;20127;48.962;8.342;2023-02-15T18:14:54;49.85;;;26.65;;
33824;SDS011;20127;48.962;8.342;2023-02-15T18:17:57;52.65;;;28.20;;
33824;SDS011;20127;48.962;8.342;2023-02-15T18:20:58;50.80;;;28.15;;
33824;SDS011;20127;48.962;8.342;2023-02-15T18:24:01;44.58;;;23.92;;
33824;SDS011;20127;48.962;8.342;2023-02-15T18:27:04;49.45;;;27.42;;
33824;SDS011;20127;48.962;8.342;2023-02-15T18:30:06;42.90;;;22.08;;
33824;SDS011;20127;48.962;8.342;2023-02-15T18:33:19;66.72;;;35.25;;
33824;SDS011;20127;48.962;8.342;2023-02-15T18:36:36;77.13;;;38.67;;
33824;SDS011;20127;48.962;8.342;2023-02-15T18:42:47;58.08;;;30.50;;
33824;SDS011;20127;48.962;8.342;2023-02-15T18:45:49;50.15;;;28.38;;
33824;SDS011;20127;48.962;8.342;2023-02-15T18:48:51;50.67;;;27.35;;